Time;durP1;ratioP1;P1;durP2;ratioP2;P2;SDS_P1;SDS_P2;PMS_P1;PMS_P2;Temp;Humidity;BMP_temperature;BMP_pressure;BME280_temperature;BME280_humidity;BME280_pressure;Samples;Min_cycle;Max_cycle;Signal;HPM_P1;HPM_P2
2021/06/27 00:00:28;;;;;;;6.03;3.50;;;;;;;22.83;53.64;99844.88;4408119;32;33755;-88
2021/06/27 00:03:16;;;;;;;3.87;2.70;;;;;;;22.69;54.55;99838.12;4396675;32;34470;-88
2021/06/27 00:05:46;;;;;;;4.47;3.55;;;;;;;22.75;54.20;99842.09;4409012;32;34172;-88
2021/06/27 00:08:16;;;;;;;4.03;3.62;;;;;;;22.80;53.98;99844.34;4421002;32;33856;-88
2021/06/27 00:10:45;;;;;;;4.28;3.53;;;;;;;22.57;54.50;99850.03;4395246;32;34462;-87
2021/06/27 00:13:13;;;;;;;4.85;3.35;;;;;;;22.65;54.07;99858.25;4392910;32;34754;-87
2021/06/27 00:15:43;;;;;;;5.22;3.62;;;;;;;22.15;56.02;99850.28;4420525;32;34288;-87
2021/06/27 00:18:15;;;;;;;6.05;3.30;;;;;;;22.46;54.95;99844.81;4420750;32;34204;-86
2021/06/27 00:20:45;;;;;;;7.97;3.97;;;;;;;22.66;54.61;99846.47;4420514;32;33464;-86
2021/06/27 00:23:15;;;;;;;3.85;3.55;;;;;;;22.42;55.38;99846.06;4407888;32;33675;-86
2021/06/27 00:25:44;;;;;;;6.95;4.07;;;;;;;22.30;55.73;99853.41;4407501;32;35006;-87
2021/06/27 00:28:11;;;;;;;3.87;3.58;;;;;;;22.33;55.64;99860.38;4407786;32;31088;-88
2021/06/27 00:30:40;;;;;;;6.20;3.83;;;;;;;22.59;54.91;99861.50;4395058;32;32182;-88
2021/06/27 00:33:09;;;;;;;3.95;3.55;;;;;;;22.51;55.14;99860.53;4395330;32;34917;-88
2021/06/27 00:35:38;;;;;;;3.70;3.28;;;;;;;22.29;55.73;99862.50;4395206;32;34600;-88
2021/06/27 00:38:06;;;;;;;4.60;3.65;;;;;;;22.69;54.60;99865.06;4407362;32;33999;-87
2021/06/27 00:40:35;;;;;;;4.53;3.83;;;;;;;22.49;55.53;99874.09;4395249;32;33386;-87
2021/06/27 00:43:05;;;;;;;5.05;4.18;;;;;;;22.02;56.93;99871.19;4420179;32;33589;-87
2021/06/27 00:45:35;;;;;;;4.65;4.25;;;;;;;22.01;57.03;99874.03;4393101;32;33247;-87
2021/06/27 00:48:04;;;;;;;3.80;3.47;;;;;;;22.04;56.78;99876.44;4407885;32;33632;-85
2021/06/27 00:50:36;;;;;;;4.40;4.00;;;;;;;22.31;55.80;99871.25;4420988;32;33445;-84
2021/06/27 00:53:06;;;;;;;4.10;3.70;;;;;;;22.15;56.07;99871.81;4397397;32;34543;-84
2021/06/27 00:55:34;;;;;;;4.18;3.87;;;;;;;22.52;55.38;99873.81;4397500;32;33318;-85
2021/06/27 00:58:02;;;;;;;3.97;3.62;;;;;;;22.12;56.64;99885.53;4383621;32;34544;-85
2021/06/27 01:00:32;;;;;;;5.00;3.95;;;;;;;22.04;56.90;99884.50;4397282;32;34189;-85
2021/06/27 01:03:01;;;;;;;6.82;4.72;;;;;;;21.92;57.17;99876.53;4397207;32;31625;-85
2021/06/27 01:05:35;;;;;;;4.37;3.95;;;;;;;22.01;56.98;99888.31;4409595;32;33516;-86
2021/06/27 01:08:04;;;;;;;5.65;4.00;;;;;;;21.95;57.09;99902.31;4397067;32;34152;-86
2021/06/27 01:10:32;;;;;;;4.82;3.97;;;;;;;21.97;57.11;99903.00;4409469;32;35489;-85
2021/06/27 01:13:00;;;;;;;6.62;4.47;;;;;;;21.71;57.60;99898.12;4421395;32;33809;-86
2021/06/27 01:15:29;;;;;;;4.53;4.12;;;;;;;21.87;56.96;99896.75;4397461;32;34443;-85
2021/06/27 01:17:57;;;;;;;5.32;4.07;;;;;;;21.93;56.59;99898.88;4409418;32;33059;-86
2021/06/27 01:20:27;;;;;;;4.80;4.20;;;;;;;21.95;56.61;99888.88;4396113;32;34617;-85
2021/06/27 01:22:57;;;;;;;4.40;4.03;;;;;;;21.95;56.82;99896.94;4409505;32;34459;-85
2021/06/27 01:25:28;;;;;;;4.78;4.32;;;;;;;22.12;56.10;99893.59;4396648;32;32449;-85
2021/06/27 01:27:56;;;;;;;4.53;4.13;;;;;;;22.01;56.35;99892.84;4397190;32;33814;-85
2021/06/27 01:30:26;;;;;;;4.05;3.58;;;;;;;21.95;56.42;99888.88;4422140;32;34520;-85
2021/06/27 01:32:56;;;;;;;5.95;4.20;;;;;;;22.03;56.20;99891.72;4383852;32;35584;-85
2021/06/27 01:35:26;;;;;;;4.57;3.62;;;;;;;21.90;56.86;99888.44;4408793;32;34345;-85
2021/06/27 01:37:57;;;;;;;5.40;4.18;;;;;;;21.92;56.93;99887.28;4397297;32;32923;-84
2021/06/27 01:40:28;;;;;;;6.93;4.22;;;;;;;22.00;56.75;99889.31;4397156;32;33352;-85
2021/06/27 01:43:13;;;;;;;5.20;3.95;;;;;;;22.04;56.79;99889.88;4396076;32;33623;-85
2021/06/27 01:46:07;;;;;;;6.28;4.00;;;;;;;21.87;57.40;99888.69;4407554;32;34261;-85
2021/06/27 01:48:36;;;;;;;4.28;3.85;;;;;;;21.92;57.45;99881.06;4408285;32;33290;-85
2021/06/27 01:51:09;;;;;;;6.18;4.50;;;;;;;21.91;57.43;99882.06;4383509;32;36024;-85
2021/06/27 01:53:38;;;;;;;9.00;3.78;;;;;;;21.87;57.53;99894.06;4409374;32;34590;-85
2021/06/27 01:56:07;;;;;;;4.10;3.70;;;;;;;21.73;57.87;99898.84;4409412;32;33607;-85
2021/06/27 01:58:44;;;;;;;6.80;3.90;;;;;;;21.76;57.70;99899.56;4408542;32;32936;-86
2021/06/27 02:01:17;;;;;;;7.78;4.70;;;;;;;21.76;57.47;99897.72;4396652;32;34969;-86
2021/06/27 02:03:46;;;;;;;6.80;4.43;;;;;;;21.77;57.46;99903.94;4409594;32;33700;-86
2021/06/27 02:06:14;;;;;;;7.12;3.85;;;;;;;21.72;57.61;99897.13;4408474;32;34133;-86
2021/06/27 02:08:43;;;;;;;5.62;4.50;;;;;;;21.75;57.68;99900.56;4409697;32;32911;-86
2021/06/27 02:11:13;;;;;;;4.78;4.32;;;;;;;21.75;57.49;99895.19;4409861;32;33310;-86
2021/06/27 02:13:41;;;;;;;4.40;4.00;;;;;;;21.79;57.43;99889.41;4395308;32;33386;-86
2021/06/27 02:16:10;;;;;;;4.80;4.00;;;;;;;21.59;58.16;99891.12;4391491;32;35317;-85
2021/06/27 02:18:41;;;;;;;5.35;3.83;;;;;;;21.46;58.90;99891.38;4394925;32;32803;-85
2021/06/27 02:21:35;;;;;;;4.05;3.72;;;;;;;21.45;59.02;99895.03;4396812;32;33678;-85
2021/06/27 02:24:04;;;;;;;4.95;4.53;;;;;;;21.58;58.42;99891.28;4419900;32;34554;-85
2021/06/27 02:26:33;;;;;;;4.30;3.90;;;;;;;21.44;59.17;99904.09;4384028;32;34408;-84
2021/06/27 02:29:03;;;;;;;4.55;4.15;;;;;;;21.57;58.51;99892.28;4409299;32;32616;-84
2021/06/27 02:31:32;;;;;;;4.60;4.18;;;;;;;21.53;58.62;99897.06;4396303;32;33869;-84
2021/06/27 02:34:01;;;;;;;5.18;4.35;;;;;;;21.55;58.48;99888.84;4421817;32;33261;-84
2021/06/27 02:36:29;;;;;;;4.72;4.32;;;;;;;21.59;58.36;99893.81;4408661;32;34076;-84
2021/06/27 02:38:56;;;;;;;6.10;4.35;;;;;;;21.59;58.31;99896.50;4396842;32;32750;-84
2021/06/27 02:41:24;;;;;;;5.28;4.78;;;;;;;21.45;58.78;99900.41;4421513;32;33321;-85
2021/06/27 02:43:52;;;;;;;4.97;4.47;;;;;;;21.52;58.52;99895.37;4409218;32;33712;-86
2021/06/27 02:46:20;;;;;;;4.07;3.67;;;;;;;21.56;58.31;99898.66;4396028;32;34550;-85
2021/06/27 02:48:48;;;;;;;7.28;4.32;;;;;;;21.46;58.96;99893.22;4394919;32;32855;-85
2021/06/27 02:51:16;;;;;;;4.55;4.15;;;;;;;21.45;59.09;99897.72;4420896;32;33086;-84
2021/06/27 02:53:43;;;;;;;5.57;4.20;;;;;;;21.52;58.77;99900.75;4409255;32;33389;-84
2021/06/27 02:56:11;;;;;;;4.25;3.85;;;;;;;21.47;58.95;99900.28;4383469;32;34303;-84
2021/06/27 02:58:47;;;;;;;11.40;4.90;;;;;;;21.50;58.73;99901.84;4408616;32;33854;-85
2021/06/27 03:01:16;;;;;;;5.22;4.82;;;;;;;21.51;58.91;99898.16;4406657;32;34170;-84
2021/06/27 03:03:50;;;;;;;5.87;4.78;;;;;;;21.51;58.71;99890.97;4396386;32;35655;-85
2021/06/27 03:06:19;;;;;;;5.97;4.87;;;;;;;21.59;58.48;99896.50;4407091;32;34558;-85
2021/06/27 03:08:47;;;;;;;5.25;4.75;;;;;;;21.62;58.45;99898.94;4406335;32;34212;-84
2021/06/27 03:11:15;;;;;;;9.10;5.03;;;;;;;21.46;59.09;99898.59;4408088;32;33269;-85
2021/06/27 03:13:43;;;;;;;5.47;4.87;;;;;;;21.16;60.34;99904.75;4408643;32;34811;-85
2021/06/27 03:16:11;;;;;;;8.63;5.68;;;;;;;21.13;60.57;99897.81;4395523;32;33451;-84
2021/06/27 03:18:40;;;;;;;7.93;4.57;;;;;;;21.10;60.85;99900.75;4396016;32;33905;-85
2021/06/27 03:21:08;;;;;;;4.55;4.03;;;;;;;21.16;60.49;99899.38;4408524;32;33330;-85
2021/06/27 03:23:35;;;;;;;5.60;4.45;;;;;;;21.26;59.99;99894.06;4408448;32;35205;-85
2021/06/27 03:26:03;;;;;;;6.30;4.93;;;;;;;21.37;59.56;99894.03;4409110;32;33366;-84
2021/06/27 03:28:36;;;;;;;5.75;5.25;;;;;;;21.38;59.55;99895.72;4421380;32;33724;-84
2021/06/27 03:31:03;;;;;;;;;;;;;;;21.28;59.90;99903.69;4397034;32;33062;-84
2021/06/27 03:33:31;;;;;;;5.12;4.62;;;;;;;21.43;59.54;99890.81;4407192;32;33678;-86
2021/06/27 03:35:59;;;;;;;6.72;4.47;;;;;;;21.57;58.77;99892.28;4393191;32;32159;-86
2021/06/27 03:38:50;;;;;;;4.80;4.40;;;;;;;21.66;58.94;99900.38;4420880;32;32836;-85
2021/06/27 03:41:23;;;;;;;5.95;5.25;;;;;;;21.50;59.61;99897.31;4398489;32;33636;-85
2021/06/27 03:43:51;;;;;;;;;;;;;;;21.44;60.20;99896.03;4409444;32;33447;-85
2021/06/27 03:46:19;;;;;;;6.18;4.37;;;;;;;21.37;60.71;99907.47;4408538;32;33274;-85
2021/06/27 03:48:47;;;;;;;6.62;4.82;;;;;;;21.36;60.63;99903.03;4395535;32;34641;-84
2021/06/27 03:51:14;;;;;;;6.37;4.72;;;;;;;21.50;59.95;99891.94;4395666;32;33998;-84
2021/06/27 03:53:42;;;;;;;6.70;5.72;;;;;;;21.53;59.72;99898.91;4395149;32;32900;-86
2021/06/27 03:56:10;;;;;;;6.32;5.45;;;;;;;21.48;59.86;99899.31;4411930;32;31574;-86
2021/06/27 03:58:38;;;;;;;5.68;5.07;;;;;;;21.40;nan;99907.16;4392742;32;34132;-86
2021/06/27 04:01:06;;;;;;;5.12;4.62;;;;;;;21.53;60.02;99904.28;4392235;32;33941;-86
2021/06/27 04:03:38;;;;;;;6.15;4.50;;;;;;;21.55;60.28;99902.28;4418006;32;33645;-87
2021/06/27 04:06:06;;;;;;;6.15;5.12;;;;;;;21.62;60.12;99907.00;4406822;32;33020;-84
2021/06/27 04:08:35;;;;;;;6.90;4.87;;;;;;;21.58;60.32;99905.56;4404223;32;33336;-84
2021/06/27 04:11:02;;;;;;;5.35;4.85;;;;;;;21.83;59.45;99906.09;4397106;32;35447;-84
2021/06/27 04:13:33;;;;;;;7.15;5.20;;;;;;;21.67;59.83;99902.06;4404268;32;33234;-84
2021/06/27 04:16:03;;;;;;;5.97;5.33;;;;;;;21.83;59.25;99906.94;4420564;32;34016;-87
2021/06/27 04:18:32;;;;;;;5.32;4.43;;;;;;;22.20;58.17;99896.44;4403746;32;34969;-87
2021/06/27 04:21:01;;;;;;;6.25;4.10;;;;;;;22.19;57.66;99893.91;4400867;32;35229;-85
2021/06/27 04:23:31;;;;;;;5.93;4.53;;;;;;;22.16;57.17;99895.03;4419692;32;33366;-85
2021/06/27 04:25:59;;;;;;;5.32;4.35;;;;;;;22.31;56.58;99900.00;4406885;32;33788;-85
2021/06/27 04:28:27;;;;;;;8.38;4.62;;;;;;;22.34;56.04;99907.78;4419554;32;32716;-85
2021/06/27 04:30:55;;;;;;;4.80;3.78;;;;;;;22.57;54.90;99905.69;4395015;32;32583;-84
2021/06/27 04:33:23;;;;;;;4.12;3.72;;;;;;;22.80;54.36;99908.97;4407745;32;33538;-85
2021/06/27 04:35:51;;;;;;;3.83;3.50;;;;;;;23.04;53.99;99905.84;4393649;32;35744;-85
2021/06/27 04:38:19;;;;;;;8.18;3.42;;;;;;;23.06;53.97;99910.06;4394008;32;33086;-84
2021/06/27 04:40:47;;;;;;;5.62;3.78;;;;;;;23.30;52.63;99911.44;4405512;32;33739;-85
2021/06/27 04:43:15;;;;;;;5.05;3.55;;;;;;;23.46;52.26;99917.09;4406975;32;33728;-85
2021/06/27 04:45:44;;;;;;;3.53;3.22;;;;;;;23.47;51.77;99921.47;4407305;32;33481;-85
2021/06/27 04:48:12;;;;;;;4.75;3.80;;;;;;;23.82;51.13;99918.09;4419298;32;31862;-84
2021/06/27 04:50:40;;;;;;;4.32;3.45;;;;;;;23.98;50.94;99918.31;4394843;32;33003;-84
2021/06/27 04:53:10;;;;;;;3.58;3.28;;;;;;;24.14;51.27;99917.66;4397056;32;34792;-84
2021/06/27 04:55:38;;;;;;;6.12;3.60;;;;;;;24.55;49.05;99907.31;4393788;32;33576;-84
2021/06/27 04:58:06;;;;;;;4.43;3.00;;;;;;;24.59;49.66;99908.69;4407778;32;33108;-85
2021/06/27 05:00:34;;;;;;;4.37;3.65;;;;;;;24.67;49.86;99907.94;4392113;32;33023;-86
2021/06/27 05:03:05;;;;;;;5.15;2.95;;;;;;;24.20;49.10;99911.63;4406043;32;34847;-85
2021/06/27 05:05:33;;;;;;;6.30;3.30;;;;;;;24.17;49.60;99909.25;4406740;32;32919;-85
2021/06/27 05:08:01;;;;;;;3.70;2.95;;;;;;;24.23;48.96;99908.66;4406756;32;32954;-85
2021/06/27 05:10:29;;;;;;;3.05;2.70;;;;;;;24.28;49.02;99908.19;4406443;32;34213;-85
2021/06/27 05:12:57;;;;;;;4.30;3.35;;;;;;;24.47;48.38;99907.25;4394433;32;34284;-85
2021/06/27 05:15:25;;;;;;;4.53;2.72;;;;;;;24.66;48.97;99901.69;4407788;32;34425;-84
2021/06/27 05:17:52;;;;;;;5.00;3.65;;;;;;;24.53;48.87;99898.50;4405869;32;33182;-84
2021/06/27 05:20:20;;;;;;;4.75;2.95;;;;;;;24.57;47.37;99894.50;4418357;32;33612;-85
2021/06/27 05:22:48;;;;;;;5.15;2.97;;;;;;;24.77;47.55;99896.03;4406983;32;34553;-84
2021/06/27 05:25:16;;;;;;;3.72;2.95;;;;;;;24.77;48.00;99893.34;4405011;32;33386;-85
2021/06/27 05:27:44;;;;;;;3.87;3.17;;;;;;;25.16;46.37;99902.94;4394066;32;33788;-85
2021/06/27 05:30:12;;;;;;;2.85;2.65;;;;;;;24.99;46.64;99901.97;4393267;32;35526;-85
2021/06/27 05:32:40;;;;;;;3.45;3.15;;;;;;;24.72;46.96;99906.44;4405676;32;33869;-86
2021/06/27 05:35:08;;;;;;;2.85;2.40;;;;;;;25.03;46.09;99900.66;4416298;32;33545;-86
2021/06/27 05:37:36;;;;;;;5.15;2.50;;;;;;;25.12;45.55;99905.12;4395467;32;34079;-85
2021/06/27 05:40:05;;;;;;;4.12;3.35;;;;;;;25.40;44.67;99902.25;4419412;32;33821;-87
2021/06/27 05:42:33;;;;;;;5.10;3.17;;;;;;;25.15;46.14;99902.09;4392425;32;34977;-87
2021/06/27 05:45:01;;;;;;;4.15;2.60;;;;;;;25.20;45.80;99898.91;4393736;32;33676;-87
2021/06/27 05:47:29;;;;;;;2.70;2.50;;;;;;;25.43;45.19;99901.94;4402867;32;33527;-87
2021/06/27 05:49:56;;;;;;;3.87;3.53;;;;;;;24.97;46.26;99901.25;4381438;32;32691;-87
2021/06/27 05:52:25;;;;;;;4.00;2.92;;;;;;;25.03;46.48;99904.19;4393938;32;35754;-86
2021/06/27 05:54:52;;;;;;;4.90;3.10;;;;;;;25.14;46.63;99905.81;4379379;32;34203;-86
2021/06/27 05:57:22;;;;;;;3.12;2.40;;;;;;;25.23;46.87;99912.97;4406956;32;34501;-86
2021/06/27 05:59:50;;;;;;;3.62;2.90;;;;;;;25.83;44.35;99917.56;4405909;32;33603;-87
2021/06/27 06:02:17;;;;;;;3.30;2.85;;;;;;;25.81;43.70;99908.75;4419001;32;34538;-85
2021/06/27 06:04:45;;;;;;;5.22;2.97;;;;;;;26.00;44.51;99910.34;4418284;32;33191;-85
2021/06/27 06:07:13;;;;;;;6.18;3.10;;;;;;;26.34;44.20;99901.31;4393211;32;32586;-85
2021/06/27 06:09:41;;;;;;;2.75;2.45;;;;;;;26.12;44.04;99911.75;4405113;32;33434;-87
2021/06/27 06:12:09;;;;;;;2.87;2.65;;;;;;;26.38;43.35;99910.81;4393340;32;33853;-88
2021/06/27 06:14:37;;;;;;;4.78;2.87;;;;;;;25.97;44.47;99913.38;4377208;32;35025;-88
2021/06/27 06:17:05;;;;;;;5.03;3.33;;;;;;;26.05;44.63;99916.97;4417591;32;32975;-88
2021/06/27 06:19:33;;;;;;;4.05;2.75;;;;;;;26.43;44.92;99908.47;4428299;32;32939;-86
2021/06/27 06:22:01;;;;;;;3.08;2.78;;;;;;;26.44;42.83;99907.47;4405320;32;34723;-86
2021/06/27 06:24:29;;;;;;;2.70;2.50;;;;;;;26.51;42.12;99905.78;4406900;32;35329;-85
2021/06/27 06:26:57;;;;;;;7.70;3.53;;;;;;;26.90;41.98;99911.41;4406690;32;32756;-86
2021/06/27 06:29:24;;;;;;;4.18;3.22;;;;;;;26.63;42.74;99909.84;4418664;32;35206;-85
2021/06/27 06:31:52;;;;;;;3.35;2.83;;;;;;;26.41;44.50;99907.78;4394585;32;33710;-85
2021/06/27 06:34:20;;;;;;;3.50;2.47;;;;;;;26.10;43.66;99913.78;4419083;32;33614;-87
2021/06/27 06:36:48;;;;;;;4.22;2.72;;;;;;;26.30;43.77;99926.03;4408211;32;34077;-86
2021/06/27 06:39:16;;;;;;;2.87;2.65;;;;;;;26.40;42.96;99916.91;4408658;32;35045;-86
2021/06/27 06:41:44;;;;;;;2.97;2.70;;;;;;;27.08;42.96;99923.94;4393843;32;35243;-87
2021/06/27 06:44:12;;;;;;;3.92;2.65;;;;;;;26.61;41.82;99916.47;4388612;32;33061;-87
2021/06/27 06:46:40;;;;;;;4.53;3.25;;;;;;;26.33;43.26;99924.00;4389598;32;33987;-87
2021/06/27 06:49:08;;;;;;;6.12;2.85;;;;;;;26.69;42.62;99922.75;4406121;32;34991;-90
2021/06/27 06:51:38;;;;;;;5.72;3.12;;;;;;;26.36;43.09;99920.97;4403196;32;31745;-87
2021/06/27 06:54:06;;;;;;;2.80;2.60;;;;;;;25.87;43.69;99928.91;4404841;32;33594;-87
2021/06/27 06:56:34;;;;;;;3.08;2.28;;;;;;;26.34;43.04;99925.69;4398610;32;34706;-87
2021/06/27 06:59:02;;;;;;;3.20;2.90;;;;;;;26.46;43.07;99919.81;4391583;32;34279;-89
2021/06/27 07:01:30;;;;;;;3.83;2.87;;;;;;;27.08;41.64;99930.22;4392151;32;34121;-86
2021/06/27 07:03:58;;;;;;;3.60;2.60;;;;;;;27.37;40.36;99923.41;4407135;32;35164;-88
2021/06/27 07:06:26;;;;;;;5.18;2.62;;;;;;;27.43;41.44;99929.00;4389587;32;31537;-86
2021/06/27 07:08:54;;;;;;;3.37;3.08;;;;;;;27.35;40.51;99920.00;4404100;32;33497;-88
2021/06/27 07:11:22;;;;;;;2.83;2.62;;;;;;;27.63;41.20;99921.34;4412514;32;34901;-87
2021/06/27 07:13:50;;;;;;;4.75;2.97;;;;;;;27.83;39.77;99918.25;4403723;32;34958;-88
2021/06/27 07:16:18;;;;;;;4.30;2.67;;;;;;;28.12;38.69;99917.59;4402974;32;32904;-88
2021/06/27 07:18:46;;;;;;;4.45;3.00;;;;;;;27.78;40.42;99916.91;4404066;32;34532;-88
2021/06/27 07:21:15;;;;;;;4.53;3.12;;;;;;;27.81;40.18;99911.09;4429152;32;33734;-87
2021/06/27 07:23:43;;;;;;;4.03;3.00;;;;;;;27.67;39.64;99909.09;4403379;32;33439;-87
2021/06/27 07:26:11;;;;;;;4.20;2.87;;;;;;;28.56;39.28;99898.84;4392777;32;33102;-87
2021/06/27 07:28:39;;;;;;;2.97;2.78;;;;;;;28.33;38.08;99906.94;4390249;32;33762;-87
2021/06/27 07:31:07;;;;;;;3.35;2.67;;;;;;;28.36;37.83;99908.50;4427599;32;34768;-87
2021/06/27 07:33:35;;;;;;;3.58;2.42;;;;;;;28.05;40.08;99912.03;4390864;32;34416;-86
2021/06/27 07:36:04;;;;;;;2.90;2.60;;;;;;;27.95;39.51;99914.09;4415878;32;33974;-87
2021/06/27 07:38:34;;;;;;;4.07;2.58;;;;;;;28.46;38.28;99898.25;4416229;32;33621;-87
2021/06/27 07:41:02;;;;;;;5.72;2.70;;;;;;;28.71;37.15;99904.34;4416396;32;33141;-87
2021/06/27 07:43:34;;;;;;;3.75;2.53;;;;;;;28.66;38.54;99904.03;4401972;32;34542;-86
2021/06/27 07:46:03;;;;;;;3.72;2.90;;;;;;;28.82;37.43;99904.78;4402758;32;33756;-87
2021/06/27 07:48:30;;;;;;;2.97;2.67;;;;;;;28.99;37.71;99910.09;4418269;32;34050;-87
2021/06/27 07:50:59;;;;;;;3.78;2.95;;;;;;;29.16;37.38;99898.06;4403780;32;34565;-87
2021/06/27 07:53:28;;;;;;;3.03;2.72;;;;;;;28.76;37.83;99899.22;4403786;32;35354;-87
2021/06/27 07:55:55;;;;;;;3.17;2.30;;;;;;;29.29;35.57;99895.53;4403804;32;32980;-87
2021/06/27 07:58:23;;;;;;;4.35;2.83;;;;;;;29.07;36.35;99908.16;4392163;32;35684;-87
2021/06/27 08:00:52;;;;;;;2.35;2.15;;;;;;;29.51;36.27;99895.63;4429688;32;33398;-87
2021/06/27 08:03:20;;;;;;;2.50;2.25;;;;;;;28.89;38.38;99906.75;4404603;32;31688;-87
2021/06/27 08:05:49;;;;;;;3.70;2.42;;;;;;;29.26;36.46;99897.78;4404387;32;34006;-87
2021/06/27 08:08:17;;;;;;;3.25;2.85;;;;;;;29.60;36.65;99897.28;4404238;32;31684;-86
2021/06/27 08:10:45;;;;;;;3.28;2.97;;;;;;;29.31;37.46;99908.94;4403265;32;34602;-87
2021/06/27 08:13:13;;;;;;;3.10;2.80;;;;;;;29.12;35.36;99906.75;4392514;32;33180;-87
2021/06/27 08:15:41;;;;;;;3.22;2.92;;;;;;;29.03;36.87;99900.56;4404624;32;33938;-87
2021/06/27 08:18:09;;;;;;;3.53;2.90;;;;;;;29.15;37.51;99893.66;4392687;32;33456;-87
2021/06/27 08:20:37;;;;;;;5.93;3.15;;;;;;;29.07;35.61;99897.28;4404077;32;35288;-86
2021/06/27 08:23:06;;;;;;;3.55;3.12;;;;;;;29.40;35.75;99896.13;4404105;32;33068;-86
2021/06/27 08:25:34;;;;;;;3.90;2.80;;;;;;;29.70;34.62;99889.66;4379983;32;33251;-87
2021/06/27 08:28:04;;;;;;;4.05;2.95;;;;;;;29.54;37.18;99888.00;4392042;32;33647;-87
2021/06/27 08:30:31;;;;;;;4.00;3.20;;;;;;;29.73;35.56;99881.13;4388634;32;32659;-87
2021/06/27 08:33:00;;;;;;;2.90;2.70;;;;;;;29.68;35.45;99888.19;4391630;32;34809;-87
2021/06/27 08:35:31;;;;;;;4.07;3.65;;;;;;;29.96;34.64;99891.91;4391014;32;31443;-87
2021/06/27 08:37:59;;;;;;;3.37;3.05;;;;;;;29.95;34.17;99882.03;4392089;32;34046;-86
2021/06/27 08:40:27;;;;;;;4.28;3.33;;;;;;;30.46;34.40;99881.16;4427307;32;33256;-86
2021/06/27 08:42:55;;;;;;;3.00;2.70;;;;;;;30.78;33.68;99896.19;4392914;32;34179;-87
2021/06/27 08:45:23;;;;;;;4.80;3.12;;;;;;;30.90;32.35;99888.31;4392186;32;32577;-87
2021/06/27 08:47:53;;;;;;;3.15;2.87;;;;;;;30.73;35.48;99894.06;4399116;32;35879;-85
2021/06/27 08:50:22;;;;;;;7.32;3.40;;;;;;;30.65;34.31;99890.59;4387003;32;33804;-86
2021/06/27 08:52:51;;;;;;;4.20;3.50;;;;;;;30.79;34.11;99893.28;4386612;32;33359;-85
2021/06/27 08:55:19;;;;;;;3.40;3.08;;;;;;;30.39;34.09;99891.16;4376612;32;34656;-86
2021/06/27 08:57:47;;;;;;;5.78;3.95;;;;;;;30.51;35.24;99890.44;4373814;32;33331;-85
2021/06/27 09:00:15;;;;;;;4.75;3.40;;;;;;;30.74;33.28;99884.00;4386331;32;34663;-85
2021/06/27 09:02:43;;;;;;;4.28;3.08;;;;;;;30.43;34.34;99887.00;4372826;32;33625;-85
2021/06/27 09:05:11;;;;;;;4.12;3.30;;;;;;;30.51;33.59;99881.44;4385548;32;32884;-86
2021/06/27 09:07:40;;;;;;;3.55;3.25;;;;;;;30.24;34.28;99878.44;4374712;32;33650;-85
2021/06/27 09:10:09;;;;;;;4.05;3.10;;;;;;;30.48;34.89;99879.97;4375528;32;33493;-86
2021/06/27 09:12:46;;;;;;;4.00;3.17;;;;;;;30.46;34.30;99881.16;4389504;32;33657;-86
2021/06/27 09:15:35;;;;;;;3.70;3.05;;;;;;;30.79;33.61;99876.06;4401464;32;33783;-86
2021/06/27 09:18:14;;;;;;;4.60;3.03;;;;;;;30.62;33.68;99880.91;4388295;32;34099;-88
2021/06/27 09:20:54;;;;;;;3.78;3.30;;;;;;;30.98;34.86;99874.56;4401954;32;33733;-86
2021/06/27 09:23:40;;;;;;;3.58;3.28;;;;;;;31.01;34.02;99875.00;4402518;32;34746;-89
2021/06/27 09:26:09;;;;;;;5.32;3.60;;;;;;;31.05;33.60;99879.03;4389766;32;34085;-85
2021/06/27 09:28:48;;;;;;;3.97;3.53;;;;;;;31.46;33.83;99877.44;4392090;32;34648;-84
2021/06/27 09:31:33;;;;;;;6.85;3.55;;;;;;;31.53;33.11;99883.78;4389939;32;33416;-84
2021/06/27 09:34:03;;;;;;;3.75;3.10;;;;;;;31.55;31.64;99887.16;4387919;32;34224;-85
2021/06/27 09:36:31;;;;;;;2.90;2.70;;;;;;;31.40;34.54;99875.53;4402111;32;34168;-85
2021/06/27 09:39:07;;;;;;;4.10;3.12;;;;;;;30.89;32.55;99878.47;4403459;32;33451;-84
2021/06/27 09:41:36;;;;;;;3.45;3.15;;;;;;;30.94;31.19;99874.09;4402186;32;33328;-84
2021/06/27 09:44:07;;;;;;;5.87;3.47;;;;;;;31.50;32.50;99885.03;4378901;32;33925;-84
2021/06/27 09:46:43;;;;;;;3.42;3.12;;;;;;;31.94;31.58;99874.78;4401208;32;34447;-84
2021/06/27 09:49:16;;;;;;;9.07;3.47;;;;;;;32.15;29.53;99871.09;4403350;32;34435;-85
2021/06/27 09:51:58;;;;;;;4.18;3.50;;;;;;;31.59;31.19;99872.06;4417347;32;33494;-84
2021/06/27 09:54:27;;;;;;;4.93;3.83;;;;;;;31.99;31.65;99872.28;4393721;32;35732;-84
2021/06/27 09:56:55;;;;;;;5.32;3.62;;;;;;;31.72;29.97;99874.88;4405969;32;33415;-84
2021/06/27 09:59:35;;;;;;;3.95;3.45;;;;;;;31.50;31.75;99867.81;4406738;32;33433;-84
2021/06/27 10:02:04;;;;;;;3.45;3.15;;;;;;;31.90;29.38;99863.41;4401434;32;33892;-84
2021/06/27 10:04:35;;;;;;;3.85;3.53;;;;;;;31.55;33.03;99870.78;4404699;32;35471;-84
2021/06/27 10:07:07;;;;;;;5.78;4.25;;;;;;;31.76;31.30;99859.78;4405976;32;33535;-84
2021/06/27 10:09:36;;;;;;;4.20;3.53;;;;;;;32.30;29.93;99858.09;4392607;32;33994;-85
2021/06/27 10:12:19;;;;;;;3.75;3.45;;;;;;;31.72;31.92;99853.03;4393481;32;34575;-85
2021/06/27 10:14:52;;;;;;;3.72;3.42;;;;;;;32.12;30.28;99853.19;4405365;32;35658;-85
2021/06/27 10:17:23;;;;;;;4.22;3.30;;;;;;;32.16;29.78;99853.63;4391676;32;35433;-84
2021/06/27 10:19:53;;;;;;;3.97;3.30;;;;;;;32.41;29.33;99840.25;4405879;32;33392;-85
2021/06/27 10:22:23;;;;;;;3.35;3.10;;;;;;;32.54;28.54;99849.31;4405864;32;33535;-84
2021/06/27 10:24:55;;;;;;;5.43;3.85;;;;;;;32.40;29.23;99847.63;4392741;32;33710;-86
2021/06/27 10:27:25;;;;;;;5.20;3.83;;;;;;;32.02;29.57;99853.59;4404097;32;32865;-84
2021/06/27 10:29:53;;;;;;;3.30;3.00;;;;;;;32.44;30.03;99840.69;4405454;32;33589;-84
2021/06/27 10:32:20;;;;;;;4.35;3.03;;;;;;;32.18;28.85;99849.63;4393520;32;34685;-84
2021/06/27 10:34:48;;;;;;;4.37;3.50;;;;;;;32.22;30.36;99845.44;4405541;32;33484;-83
2021/06/27 10:37:38;;;;;;;3.37;3.08;;;;;;;32.23;27.31;99833.47;4405979;32;35136;-84
2021/06/27 10:40:12;;;;;;;6.07;3.35;;;;;;;31.93;29.73;99838.44;4414376;32;34110;-84
2021/06/27 10:42:49;;;;;;;3.65;3.20;;;;;;;31.65;32.46;99835.75;4430103;32;34847;-85
2021/06/27 10:45:26;;;;;;;3.80;3.37;;;;;;;32.02;29.34;99833.63;4405446;32;34503;-84
2021/06/27 10:47:55;;;;;;;3.55;3.15;;;;;;;32.54;27.80;99829.34;4390930;32;31877;-84
2021/06/27 10:50:52;;;;;;;3.05;2.85;;;;;;;32.18;28.29;99838.72;4388247;32;35145;-84
2021/06/27 10:53:20;;;;;;;4.18;3.08;;;;;;;31.64;29.65;99839.53;4373586;32;34284;-84
2021/06/27 10:55:49;;;;;;;3.12;2.83;;;;;;;31.97;27.99;99842.44;4369173;32;32713;-84
2021/06/27 10:58:35;;;;;;;3.20;2.90;;;;;;;31.14;29.08;99841.50;4391859;32;32926;-84
2021/06/27 11:01:10;;;;;;;3.05;2.75;;;;;;;31.29;29.52;99842.31;4391665;32;33396;-84
2021/06/27 11:03:45;;;;;;;3.25;2.95;;;;;;;31.78;28.20;99833.09;4388394;32;34833;-84
2021/06/27 11:06:16;;;;;;;6.20;3.55;;;;;;;31.76;31.22;99835.19;4380379;32;33585;-84
2021/06/27 11:08:48;;;;;;;3.70;3.10;;;;;;;31.73;31.31;99832.87;4395936;32;33666;-84
2021/06/27 11:11:21;;;;;;;3.35;2.80;;;;;;;31.85;29.93;99827.69;4391431;32;33627;-84
2021/06/27 11:14:11;;;;;;;3.67;3.35;;;;;;;32.02;28.28;99833.63;4391901;32;33552;-84
2021/06/27 11:16:59;;;;;;;3.67;3.15;;;;;;;31.16;29.84;99828.53;4404220;32;34554;-84
2021/06/27 11:19:29;;;;;;;4.95;3.08;;;;;;;31.23;28.57;99823.94;4391749;32;32566;-84
2021/06/27 11:22:16;;;;;;;2.78;2.53;;;;;;;30.93;29.03;99825.22;4383264;32;33731;-84
2021/06/27 11:24:45;;;;;;;3.33;2.85;;;;;;;31.71;29.37;99817.72;4386001;32;34713;-84
2021/06/27 11:27:37;;;;;;;3.22;2.97;;;;;;;32.04;28.60;99804.22;4388614;32;34517;-85
2021/06/27 11:30:29;;;;;;;3.00;2.70;;;;;;;32.53;28.63;99803.91;4386831;32;32704;-85
2021/06/27 11:33:24;;;;;;;3.17;2.87;;;;;;;32.84;27.00;99799.69;4399777;32;34561;-84
2021/06/27 11:35:57;;;;;;;4.75;2.90;;;;;;;32.88;27.51;99796.31;4397296;32;33445;-85
2021/06/27 11:38:37;;;;;;;4.18;2.75;;;;;;;32.91;27.08;99797.00;4380311;32;33322;-85
2021/06/27 11:41:25;;;;;;;3.08;2.78;;;;;;;32.46;27.29;99794.84;4389578;32;33810;-85
2021/06/27 11:44:04;;;;;;;3.47;2.60;;;;;;;32.23;27.78;99797.09;4399948;32;33701;-85
2021/06/27 11:46:41;;;;;;;3.25;3.03;;;;;;;31.48;29.35;99804.41;4397254;32;34566;-85
2021/06/27 11:49:15;;;;;;;3.40;3.10;;;;;;;31.43;31.58;99806.88;4406657;32;33342;-85